createdAt,value
2023-03-01T00:01:22.546Z,26.20
2023-03-01T00:03:50.460Z,24.20
2023-03-01T00:06:18.330Z,26.02
2023-03-01T00:08:46.267Z,26.35
2023-03-01T00:11:28.734Z,27.10
2023-03-01T00:13:58.675Z,25.70
2023-03-01T00:16:29.743Z,23.48
2023-03-01T00:18:58.232Z,23.98
2023-03-01T00:21:26.136Z,24.70
2023-03-01T00:23:54.627Z,23.35
2023-03-01T00:26:23.768Z,25.10
2023-03-01T00:28:51.786Z,24.80
2023-03-01T00:31:21.671Z,23.05
2023-03-01T00:33:49.761Z,27.63
2023-03-01T00:36:17.610Z,24.50
2023-03-01T00:38:46.762Z,27.15
2023-03-01T00:41:16.842Z,24.98
2023-03-01T00:43:45.522Z,25.23
2023-03-01T00:46:21.434Z,23.80
2023-03-01T00:48:49.498Z,25.67
2023-03-01T00:51:24.533Z,27.08
2023-03-01T00:53:54.628Z,24.08
2023-03-01T00:56:22.668Z,24.77
2023-03-01T00:58:50.428Z,24.20
2023-03-01T01:01:21.061Z,26.27
2023-03-01T01:03:54.716Z,25.67
2023-03-01T01:06:24.766Z,28.50
2023-03-01T01:08:54.242Z,28.05
2023-03-01T01:11:23.186Z,26.70
2023-03-01T01:13:51.214Z,26.15
2023-03-01T01:16:20.324Z,27.20
2023-03-01T01:18:48.605Z,25.00
2023-03-01T01:21:19.947Z,26.20
2023-03-01T01:23:48.756Z,25.25
2023-03-01T01:26:20.202Z,26.38
2023-03-01T01:28:48.319Z,25.40
2023-03-01T01:31:16.697Z,24.65
2023-03-01T01:33:44.388Z,27.45
2023-03-01T01:36:12.946Z,26.65
2023-03-01T01:38:40.862Z,26.75
2023-03-01T01:41:08.567Z,27.27
2023-03-01T01:43:41.977Z,30.25
2023-03-01T01:46:28.472Z,27.60
2023-03-01T01:49:01.701Z,29.27
2023-03-01T01:51:39.592Z,30.05
2023-03-01T01:54:12.718Z,25.90
2023-03-01T01:56:45.136Z,28.30
2023-03-01T01:59:13.717Z,26.58
2023-03-01T02:01:41.291Z,28.83
2023-03-01T02:04:08.949Z,31.40
2023-03-01T02:06:49.207Z,25.35
2023-03-01T02:09:19.610Z,27.35
2023-03-01T02:11:48.959Z,26.13
2023-03-01T02:14:17.650Z,25.27
2023-03-01T02:16:45.748Z,25.90
2023-03-01T02:19:25.367Z,25.67
2023-03-01T02:22:14.742Z,23.55
2023-03-01T02:24:57.573Z,25.45
2023-03-01T02:27:30.072Z,23.70
2023-03-01T02:29:57.893Z,23.58
2023-03-01T02:32:26.284Z,23.23
2023-03-01T02:34:56.425Z,24.65
2023-03-01T02:37:27.378Z,22.48
2023-03-01T02:40:06.582Z,21.10
2023-03-01T02:43:06.931Z,21.58
2023-03-01T02:45:34.490Z,23.75
2023-03-01T02:55:24.435Z,22.65
2023-03-01T03:00:27.933Z,19.63
2023-03-01T03:02:58.268Z,20.90
2023-03-01T03:05:31.596Z,19.63
2023-03-01T03:08:01.293Z,21.95
2023-03-01T03:10:33.938Z,21.35
2023-03-01T03:13:08.741Z,21.98
2023-03-01T03:15:40.116Z,22.55
2023-03-01T03:18:10.574Z,21.33
2023-03-01T03:20:40.536Z,24.20
2023-03-01T03:23:08.560Z,22.20
2023-03-01T03:25:39.201Z,22.45
2023-03-01T03:28:11.099Z,21.95
2023-03-01T03:30:41.359Z,21.52
2023-03-01T03:33:13.024Z,23.27
2023-03-01T03:35:49.824Z,23.58
2023-03-01T03:38:20.229Z,22.20
2023-03-01T03:40:50.443Z,22.08
2023-03-01T03:43:23.989Z,22.40
2023-03-01T03:45:52.899Z,23.17
2023-03-01T03:48:20.960Z,26.65
2023-03-01T03:50:51.273Z,22.08
2023-03-01T03:53:19.565Z,23.45
2023-03-01T03:55:50.326Z,25.85
2023-03-01T03:58:20.900Z,23.02
2023-03-01T04:00:50.892Z,22.45
2023-03-01T04:03:20.912Z,22.92
2023-03-01T04:05:49.052Z,23.63
2023-03-01T04:08:16.764Z,24.00
2023-03-01T04:10:48.391Z,21.33
2023-03-01T04:13:20.796Z,21.88
2023-03-01T04:15:55.271Z,21.50
2023-03-01T04:18:26.337Z,21.33
2023-03-01T04:20:56.445Z,20.95
2023-03-01T04:23:24.290Z,21.67
2023-03-01T04:25:58.034Z,21.02
2023-03-01T04:28:28.518Z,22.55
2023-03-01T04:30:57.664Z,20.20
2023-03-01T04:33:26.777Z,22.65
2023-03-01T04:35:54.289Z,22.10
2023-03-01T04:38:22.456Z,23.58
2023-03-01T04:40:50.088Z,21.20
2023-03-01T04:43:18.767Z,21.35
2023-03-01T04:45:46.229Z,20.40
2023-03-01T04:50:41.121Z,20.52
2023-03-01T04:53:08.650Z,22.52
2023-03-01T04:55:36.070Z,20.73
2023-03-01T05:00:30.650Z,20.33
2023-03-01T05:03:01.439Z,21.58
2023-03-01T05:05:32.368Z,20.85
2023-03-01T05:08:03.659Z,21.20
2023-03-01T05:10:33.158Z,21.60
2023-03-01T05:13:00.789Z,22.48
2023-03-01T05:15:29.958Z,24.20
2023-03-01T05:18:01.787Z,20.98
2023-03-01T05:20:31.599Z,22.80
2023-03-01T05:23:00.832Z,22.08
2023-03-01T05:25:34.174Z,21.65
2023-03-01T05:28:05.409Z,21.10
2023-03-01T05:30:35.419Z,23.63
2023-03-01T05:33:03.144Z,22.52
2023-03-01T05:35:33.722Z,20.92
2023-03-01T05:38:01.334Z,21.42
2023-03-01T05:42:58.251Z,20.23
2023-03-01T05:45:27.614Z,25.17
2023-03-01T05:47:56.151Z,20.05
2023-03-01T05:50:33.097Z,21.95
2023-03-01T05:53:10.470Z,20.52
2023-03-01T05:58:10.263Z,22.42
2023-03-01T06:00:38.061Z,24.00
2023-03-01T06:03:05.592Z,22.17
2023-03-01T06:05:33.385Z,21.02
2023-03-01T06:08:02.136Z,22.30
2023-03-01T06:10:30.091Z,20.75
2023-03-01T06:12:58.168Z,22.20
2023-03-01T06:15:26.632Z,22.55
2023-03-01T06:17:58.776Z,21.30
2023-03-01T06:20:29.037Z,21.13
2023-03-01T06:22:57.153Z,21.60
2023-03-01T06:25:26.870Z,22.00
2023-03-01T06:27:54.688Z,23.33
2023-03-01T06:30:24.057Z,20.95
2023-03-01T06:32:51.694Z,25.20
2023-03-01T06:35:20.085Z,23.42
2023-03-01T06:37:48.938Z,23.63
2023-03-01T06:40:17.317Z,19.67
2023-03-01T06:42:52.489Z,22.65
2023-03-01T06:45:21.947Z,19.42
2023-03-01T06:47:49.964Z,23.17
2023-03-01T06:50:18.608Z,22.33
2023-03-01T06:57:41.993Z,21.38
2023-03-01T07:00:10.167Z,20.58
2023-03-01T07:02:37.738Z,22.42
2023-03-01T07:05:05.706Z,22.15
2023-03-01T07:07:33.225Z,20.40
2023-03-01T07:10:02.947Z,19.45
2023-03-01T07:12:32.855Z,20.98
2023-03-01T07:17:27.562Z,20.33
2023-03-01T07:22:22.482Z,18.33
2023-03-01T07:24:50.064Z,20.27
2023-03-01T07:32:13.300Z,18.48
2023-03-01T07:34:41.488Z,17.70
2023-03-01T07:37:09.067Z,19.58
2023-03-01T07:49:27.584Z,19.23
2023-03-01T07:51:55.195Z,17.73
2023-03-01T07:54:22.957Z,17.95
2023-03-01T07:56:50.396Z,17.17
2023-03-01T08:01:45.090Z,16.13
2023-03-01T08:09:07.734Z,18.52
2023-03-01T08:11:35.147Z,16.05
2023-03-01T08:16:30.709Z,17.20
2023-03-01T08:19:01.776Z,18.05
2023-03-01T08:21:29.240Z,18.75
2023-03-01T08:26:23.810Z,15.35
2023-03-01T08:28:51.489Z,17.73
2023-03-01T08:31:23.299Z,14.57
2023-03-01T08:33:56.410Z,16.38
2023-03-01T08:36:26.721Z,16.65
2023-03-01T08:38:54.758Z,16.90
2023-03-01T08:41:22.729Z,14.57
2023-03-01T08:43:50.474Z,16.80
2023-03-01T08:46:18.071Z,14.23
2023-03-01T08:48:45.592Z,15.70
2023-03-01T08:51:16.366Z,14.02
2023-03-01T08:53:44.375Z,16.92
2023-03-01T08:56:12.379Z,15.60
2023-03-01T08:58:43.719Z,16.38
2023-03-01T09:01:12.785Z,15.57
2023-03-01T09:03:40.961Z,15.52
2023-03-01T09:06:09.004Z,19.83
2023-03-01T09:08:41.579Z,17.85
2023-03-01T09:11:12.901Z,16.55
2023-03-01T09:13:44.115Z,18.35
2023-03-01T09:16:14.394Z,15.82
2023-03-01T09:18:42.113Z,17.10
2023-03-01T09:21:16.207Z,23.60
2023-03-01T09:23:46.516Z,20.38
2023-03-01T09:26:23.159Z,22.42
2023-03-01T09:28:53.331Z,20.92
2023-03-01T09:31:22.907Z,20.23
2023-03-01T09:33:52.642Z,21.35
2023-03-01T09:36:23.009Z,17.60
2023-03-01T09:38:50.769Z,15.13
2023-03-01T09:41:48.568Z,16.95
2023-03-01T09:44:20.330Z,16.98
2023-03-01T09:46:48.497Z,14.70
2023-03-01T09:49:22.144Z,16.23
2023-03-01T09:51:57.357Z,17.35
2023-03-01T09:54:25.356Z,23.63
2023-03-01T09:57:29.692Z,23.25
2023-03-01T10:00:23.590Z,24.85
2023-03-01T10:03:00.985Z,23.50
2023-03-01T10:05:31.078Z,23.50
2023-03-01T10:08:20.388Z,20.85
2023-03-01T10:10:48.939Z,21.23
2023-03-01T10:13:38.124Z,20.48
2023-03-01T10:16:15.050Z,19.77
2023-03-01T10:18:54.889Z,20.25
2023-03-01T10:21:22.464Z,16.38
2023-03-01T10:26:48.465Z,16.60
2023-03-01T10:29:16.600Z,17.33
2023-03-01T10:31:54.214Z,18.40
2023-03-01T10:34:31.684Z,19.15
2023-03-01T10:37:10.154Z,18.95
2023-03-01T10:39:37.972Z,16.75
2023-03-01T10:42:20.112Z,19.10
2023-03-01T10:44:50.022Z,18.75
2023-03-01T10:47:24.425Z,17.83
2023-03-01T10:49:57.960Z,17.73
2023-03-01T10:52:33.254Z,16.90
2023-03-01T10:55:22.332Z,18.02
2023-03-01T10:57:49.929Z,19.75
2023-03-01T11:00:28.990Z,20.70
2023-03-01T11:02:59.435Z,19.65
2023-03-01T11:05:31.136Z,23.17
2023-03-01T11:08:01.466Z,23.88
2023-03-01T11:10:32.586Z,25.85
2023-03-01T11:13:26.364Z,24.20
2023-03-01T11:16:13.797Z,21.38
2023-03-01T11:18:47.950Z,22.15
2023-03-01T11:21:17.832Z,19.67
2023-03-01T11:23:47.953Z,21.73
2023-03-01T11:26:18.497Z,19.98
2023-03-01T11:28:53.344Z,23.10
2023-03-01T11:31:21.741Z,21.92
2023-03-01T11:34:01.176Z,23.05
2023-03-01T11:36:34.554Z,22.55
2023-03-01T11:39:28.901Z,22.38
2023-03-01T11:42:21.005Z,23.40
2023-03-01T11:44:53.773Z,24.65
2023-03-01T11:47:40.465Z,22.90
2023-03-01T11:50:32.789Z,21.05
2023-03-01T11:53:03.490Z,21.13
2023-03-01T11:56:09.841Z,23.00
2023-03-01T11:58:58.696Z,23.90
2023-03-01T12:01:54.305Z,19.55
2023-03-01T12:05:17.648Z,21.30
2023-03-01T12:08:02.184Z,17.00
2023-03-01T12:11:01.083Z,18.23
2023-03-01T12:14:05.584Z,22.42
2023-03-01T12:16:42.290Z,20.45
2023-03-01T12:19:21.653Z,19.27
2023-03-01T12:22:07.874Z,20.13
2023-03-01T12:24:53.968Z,19.27
2023-03-01T12:27:33.656Z,18.85
2023-03-01T12:30:27.379Z,18.80
2023-03-01T12:33:30.691Z,17.55
2023-03-01T12:36:11.607Z,21.95
2023-03-01T12:38:44.286Z,17.58
2023-03-01T12:41:42.314Z,18.42
2023-03-01T12:44:09.685Z,17.63
2023-03-01T12:46:53.806Z,15.57
2023-03-01T12:49:31.265Z,17.40
2023-03-01T12:52:25.670Z,17.67
2023-03-01T12:54:57.046Z,11.85
2023-03-01T12:57:38.001Z,14.85
2023-03-01T13:00:28.182Z,17.45
2023-03-01T13:03:19.472Z,17.38
2023-03-01T13:06:05.930Z,13.23
2023-03-01T13:08:34.236Z,13.05
2023-03-01T13:11:04.839Z,12.93
2023-03-01T13:13:32.792Z,11.70
2023-03-01T13:16:24.033Z,11.75
2023-03-01T13:19:07.923Z,12.68
2023-03-01T13:21:35.408Z,11.88
2023-03-01T13:26:30.652Z,11.02
2023-03-01T13:28:59.490Z,10.95
2023-03-01T13:31:27.020Z,10.68
2023-03-01T13:33:59.477Z,11.93
2023-03-01T13:36:30.660Z,9.20
2023-03-01T13:39:01.674Z,9.13
2023-03-01T13:41:44.536Z,9.73
2023-03-01T13:44:30.126Z,10.00
2023-03-01T13:47:00.156Z,12.30
2023-03-01T13:49:45.985Z,11.20
2023-03-01T13:52:47.613Z,10.32
2023-03-01T13:55:15.073Z,11.90
2023-03-01T13:57:47.749Z,11.60
2023-03-01T14:00:36.323Z,11.68
2023-03-01T14:03:10.547Z,11.23
2023-03-01T14:05:38.918Z,12.02
2023-03-01T14:08:18.550Z,9.63
2023-03-01T14:11:06.286Z,9.05
2023-03-01T14:13:57.431Z,9.75
2023-03-01T14:16:37.157Z,9.27
2023-03-01T14:19:32.555Z,7.85
2023-03-01T14:22:14.340Z,8.35
2023-03-01T14:24:48.726Z,11.95
2023-03-01T14:27:17.312Z,9.65
2023-03-01T14:29:54.538Z,7.90
2023-03-01T14:34:51.690Z,13.88
2023-03-01T14:37:20.987Z,10.85
2023-03-01T14:39:49.354Z,11.50
2023-03-01T14:42:17.418Z,9.80
2023-03-01T14:44:48.188Z,10.55
2023-03-01T14:47:20.993Z,11.25
2023-03-01T14:49:53.394Z,13.00
2023-03-01T14:52:38.367Z,14.02
2023-03-01T14:55:14.665Z,11.75
2023-03-01T14:57:44.902Z,13.77
2023-03-01T15:00:19.701Z,11.63
2023-03-01T15:02:49.918Z,12.63
2023-03-01T15:05:23.258Z,15.85
2023-03-01T15:07:52.261Z,13.82
2023-03-01T15:10:34.516Z,15.20
2023-03-01T15:13:22.518Z,15.35
2023-03-01T15:15:52.724Z,13.25
2023-03-01T15:18:24.917Z,12.00
2023-03-01T15:20:53.279Z,16.13
2023-03-01T15:23:28.080Z,13.95
2023-03-01T15:26:05.568Z,13.43
2023-03-01T15:28:49.809Z,15.27
2023-03-01T15:31:24.476Z,13.60
2023-03-01T15:33:53.276Z,16.02
2023-03-01T15:36:39.337Z,14.80
2023-03-01T15:39:07.348Z,16.63
2023-03-01T15:41:48.311Z,17.88
2023-03-01T15:44:27.912Z,18.13
2023-03-01T15:46:58.436Z,20.10
2023-03-01T15:49:54.428Z,18.52
2023-03-01T15:52:43.794Z,16.48
2023-03-01T15:55:24.511Z,22.50
2023-03-01T15:58:01.649Z,19.45
2023-03-01T16:00:30.297Z,17.77
2023-03-01T16:02:57.965Z,22.25
2023-03-01T16:05:35.399Z,17.80
2023-03-01T16:08:04.569Z,19.15
2023-03-01T16:10:32.590Z,21.08
2023-03-01T16:13:00.861Z,20.77
2023-03-01T16:15:33.055Z,20.17
2023-03-01T16:18:00.815Z,18.90
2023-03-01T16:23:04.831Z,18.45
2023-03-01T16:25:33.460Z,20.88
2023-03-01T16:28:05.110Z,19.63
2023-03-01T16:30:32.933Z,17.63
2023-03-01T16:33:00.363Z,19.48
2023-03-01T16:35:28.478Z,20.55
2023-03-01T16:37:56.087Z,20.52
2023-03-01T16:40:27.881Z,16.58
2023-03-01T16:43:00.524Z,15.07
2023-03-01T16:45:34.628Z,15.88
2023-03-01T16:48:03.803Z,15.10
2023-03-01T16:50:31.438Z,13.98
2023-03-01T16:52:58.944Z,15.07
2023-03-01T16:57:53.782Z,16.50
2023-03-01T17:02:49.953Z,14.68
2023-03-01T17:05:18.588Z,15.00
2023-03-01T17:07:46.133Z,13.90
2023-03-01T17:12:41.081Z,16.33
2023-03-01T17:17:36.198Z,13.43
2023-03-01T17:22:32.425Z,16.45
2023-03-01T17:29:54.642Z,17.83
2023-03-01T17:32:22.358Z,18.85
2023-03-01T17:34:49.988Z,17.10
2023-03-01T17:37:17.603Z,19.17
2023-03-01T17:39:45.100Z,16.77
2023-03-01T17:42:12.604Z,19.90
2023-03-01T17:47:10.885Z,17.13
2023-03-01T17:49:38.333Z,16.58
2023-03-01T17:54:33.626Z,18.58
2023-03-01T17:57:01.412Z,15.68
2023-03-01T17:59:33.647Z,18.20
2023-03-01T18:02:01.849Z,18.15
2023-03-01T18:04:30.189Z,17.67
2023-03-01T18:06:58.674Z,17.88
2023-03-01T18:09:27.666Z,18.95
2023-03-01T18:11:55.184Z,17.65
2023-03-01T18:19:17.610Z,17.60
2023-03-01T18:24:12.292Z,16.17
2023-03-01T18:29:08.395Z,17.52
2023-03-01T18:31:36.081Z,17.20
2023-03-01T18:34:03.577Z,19.80
2023-03-01T18:39:07.110Z,16.90
2023-03-01T18:41:36.709Z,18.50
2023-03-01T18:44:05.639Z,18.98
2023-03-01T18:46:36.243Z,18.83
2023-03-01T18:49:06.330Z,18.08
2023-03-01T18:51:35.677Z,22.27
2023-03-01T18:54:03.313Z,21.13
2023-03-01T18:59:04.114Z,20.90
2023-03-01T19:01:36.701Z,22.65
2023-03-01T19:04:05.438Z,21.05
2023-03-01T19:06:35.497Z,19.92
2023-03-01T19:09:03.684Z,20.90
2023-03-01T19:11:33.692Z,23.77
2023-03-01T19:14:02.584Z,19.02
2023-03-01T19:16:32.439Z,22.15
2023-03-01T19:19:01.884Z,20.48
2023-03-01T19:21:32.276Z,19.10
2023-03-01T19:24:02.421Z,20.67
2023-03-01T19:26:31.358Z,21.25
2023-03-01T19:28:59.570Z,18.80
2023-03-01T19:31:29.756Z,18.30
2023-03-01T19:34:11.436Z,22.83
2023-03-01T19:36:42.919Z,19.45
2023-03-01T19:39:13.735Z,23.38
2023-03-01T19:41:42.450Z,22.25
2023-03-01T19:44:10.197Z,21.13
2023-03-01T19:46:38.064Z,22.55
2023-03-01T19:49:05.813Z,19.05
2023-03-01T19:51:36.246Z,20.98
2023-03-01T19:54:06.239Z,23.00
2023-03-01T19:56:34.826Z,19.77
2023-03-01T19:59:04.607Z,17.90
2023-03-01T20:01:34.772Z,19.35
2023-03-01T20:04:04.087Z,17.50
2023-03-01T20:06:32.136Z,19.67
2023-03-01T20:09:08.973Z,22.00
2023-03-01T20:11:43.485Z,20.25
2023-03-01T20:14:12.393Z,19.98
2023-03-01T20:16:40.278Z,18.40
2023-03-01T20:19:08.313Z,19.27
2023-03-01T20:21:36.092Z,15.95
2023-03-01T20:24:03.541Z,22.13
2023-03-01T20:26:32.840Z,21.60
2023-03-01T20:29:00.554Z,18.98
2023-03-01T20:31:29.927Z,19.90
2023-03-01T20:33:58.888Z,21.23
2023-03-01T20:36:27.605Z,25.05
2023-03-01T20:38:55.254Z,25.75
2023-03-01T20:41:26.254Z,27.48
2023-03-01T20:43:56.451Z,29.33
2023-03-01T20:46:25.840Z,28.63
2023-03-01T20:48:54.339Z,27.25
2023-03-01T20:51:22.163Z,23.23
2023-03-01T20:53:49.880Z,23.90
2023-03-01T20:56:19.263Z,26.38
2023-03-01T20:59:08.274Z,24.23
2023-03-01T21:01:37.996Z,24.83
2023-03-01T21:04:06.047Z,23.90
2023-03-01T21:06:34.080Z,25.10
2023-03-01T21:09:01.911Z,22.67
2023-03-01T21:11:29.449Z,25.67
2023-03-01T21:16:24.738Z,28.70
2023-03-01T21:18:52.509Z,23.67
2023-03-01T21:21:22.732Z,22.45
2023-03-01T21:23:50.512Z,22.70
2023-03-01T21:26:20.696Z,25.30
2023-03-01T21:28:51.000Z,21.73
2023-03-01T21:31:22.399Z,33.80
2023-03-01T21:33:52.998Z,22.20
2023-03-01T21:36:22.494Z,22.63
2023-03-01T21:38:52.626Z,22.38
2023-03-01T21:41:29.231Z,26.70
2023-03-01T21:44:00.519Z,22.67
2023-03-01T21:46:31.013Z,23.85
2023-03-01T21:48:59.581Z,24.15
2023-03-01T21:51:27.869Z,24.05
2023-03-01T21:53:56.293Z,21.55
2023-03-01T21:56:26.477Z,22.13
2023-03-01T21:58:54.479Z,22.35
2023-03-01T22:01:25.857Z,23.40
2023-03-01T22:03:54.229Z,23.20
2023-03-01T22:06:31.156Z,22.15
2023-03-01T22:09:06.090Z,24.55
2023-03-01T22:11:39.654Z,23.77
2023-03-01T22:14:08.275Z,22.83
2023-03-01T22:16:37.545Z,23.02
2023-03-01T22:19:08.917Z,24.23
2023-03-01T22:21:40.657Z,25.35
2023-03-01T22:24:08.585Z,23.75
2023-03-01T22:26:41.931Z,29.30
2023-03-01T22:29:16.026Z,27.73
2023-03-01T22:31:43.994Z,26.38
2023-03-01T22:34:12.152Z,29.13
2023-03-01T22:36:39.711Z,28.38
2023-03-01T22:41:44.373Z,26.80
2023-03-01T22:44:17.905Z,23.73
2023-03-01T22:46:45.961Z,24.08
2023-03-01T22:49:16.673Z,24.35
2023-03-01T22:51:44.843Z,27.17
2023-03-01T22:54:12.298Z,25.13
2023-03-01T22:59:11.245Z,25.15
2023-03-01T23:01:40.742Z,25.88
2023-03-01T23:04:08.536Z,24.42
2023-03-01T23:06:50.233Z,26.98
2023-03-01T23:09:19.574Z,26.27
2023-03-01T23:11:47.164Z,24.15
2023-03-01T23:14:15.795Z,25.27
2023-03-01T23:16:43.275Z,21.50
2023-03-01T23:19:10.928Z,20.35
2023-03-01T23:21:38.501Z,21.00
2023-03-01T23:24:06.356Z,23.90
2023-03-01T23:26:34.052Z,20.10
2023-03-01T23:29:01.748Z,21.17
2023-03-01T23:31:30.258Z,16.90
2023-03-01T23:33:58.027Z,20.65
2023-03-01T23:36:28.646Z,22.75
2023-03-01T23:39:01.368Z,20.02
2023-03-01T23:41:31.007Z,21.38
2023-03-01T23:44:00.704Z,17.77
2023-03-01T23:46:31.212Z,19.42
2023-03-01T23:48:59.949Z,17.83
2023-03-01T23:51:27.437Z,15.85
2023-03-01T23:54:00.035Z,17.65
2023-03-01T23:56:36.501Z,21.70
2023-03-01T23:59:09.256Z,20.40
